sensor_id;sensor_type;location;lat;lon;timestamp;pressure;altitude;pressure_sealevel;temperature;humidity
56992;BME280;42885;49.754;18.636;2023-02-26T00:02:22;97117.23;;;4.84;100.00
56992;BME280;42885;49.754;18.636;2023-02-26T00:04:53;97119.93;;;5.13;100.00
56992;BME280;42885;49.754;18.636;2023-02-26T00:07:24;97122.23;;;5.33;100.00
56992;BME280;42885;49.754;18.636;2023-02-26T00:09:56;97137.45;;;5.16;100.00
56992;BME280;42885;49.754;18.636;2023-02-26T00:12:27;97144.68;;;4.95;100.00
56992;BME280;42885;49.754;18.636;2023-02-26T00:14:59;97156.98;;;4.91;100.00
56992;BME280;42885;49.754;18.636;2023-02-26T00:17:41;97154.49;;;5.13;100.00
56992;BME280;42885;49.754;18.636;2023-02-26T00:20:12;97158.52;;;5.26;100.00
56992;BME280;42885;49.754;18.636;2023-02-26T00:22:45;97164.47;;;5.05;100.00
56992;BME280;42885;49.754;18.636;2023-02-26T00:25:16;97164.13;;;4.95;100.00
56992;BME280;42885;49.754;18.636;2023-02-26T00:27:47;97162.24;;;5.06;100.00
56992;BME280;42885;49.754;18.636;2023-02-26T00:30:19;97165.98;;;5.16;100.00
56992;BME280;42885;49.754;18.636;2023-02-26T00:32:50;97171.72;;;5.14;100.00
56992;BME280;42885;49.754;18.636;2023-02-26T00:35:21;97178.34;;;4.88;100.00
56992;BME280;42885;49.754;18.636;2023-02-26T00:38:06;97180.17;;;5.02;100.00
56992;BME280;42885;49.754;18.636;2023-02-26T00:40:44;97183.69;;;5.01;100.00
56992;BME280;42885;49.754;18.636;2023-02-26T00:43:21;97177.66;;;5.16;100.00
56992;BME280;42885;49.754;18.636;2023-02-26T00:54:21;97155.95;;;5.10;100.00
56992;BME280;42885;49.754;18.636;2023-02-26T00:56:54;97163.05;;;5.22;100.00
56992;BME280;42885;49.754;18.636;2023-02-26T00:59:26;97163.20;;;5.12;100.00
56992;BME280;42885;49.754;18.636;2023-02-26T01:01:57;97175.54;;;5.00;100.00
56992;BME280;42885;49.754;18.636;2023-02-26T01:04:28;97168.04;;;4.79;100.00
56992;BME280;42885;49.754;18.636;2023-02-26T01:07:03;97166.94;;;4.99;100.00
56992;BME280;42885;49.754;18.636;2023-02-26T01:09:35;97160.39;;;5.08;100.00
56992;BME280;42885;49.754;18.636;2023-02-26T01:12:09;97165.56;;;4.85;100.00
56992;BME280;42885;49.754;18.636;2023-02-26T01:15:02;97166.12;;;4.82;100.00
56992;BME280;42885;49.754;18.636;2023-02-26T01:20:30;97178.90;;;4.86;100.00
56992;BME280;42885;49.754;18.636;2023-02-26T01:23:04;97186.33;;;4.76;100.00
56992;BME280;42885;49.754;18.636;2023-02-26T01:28:09;97191.13;;;5.46;100.00
56992;BME280;42885;49.754;18.636;2023-02-26T01:30:40;97190.02;;;4.72;100.00
56992;BME280;42885;49.754;18.636;2023-02-26T01:33:21;97186.58;;;4.71;100.00
56992;BME280;42885;49.754;18.636;2023-02-26T01:36:06;97194.01;;;4.86;100.00
56992;BME280;42885;49.754;18.636;2023-02-26T01:42:11;97209.43;;;4.96;100.00
56992;BME280;42885;49.754;18.636;2023-02-26T01:47:13;97200.89;;;4.78;100.00
56992;BME280;42885;49.754;18.636;2023-02-26T01:49:44;97202.16;;;4.87;100.00
56992;BME280;42885;49.754;18.636;2023-02-26T01:55:23;97205.69;;;4.93;100.00
56992;BME280;42885;49.754;18.636;2023-02-26T01:57:57;97209.71;;;4.83;99.05
56992;BME280;42885;49.754;18.636;2023-02-26T02:00:30;97213.30;;;4.64;100.00
56992;BME280;42885;49.754;18.636;2023-02-26T02:03:01;97223.84;;;4.77;98.90
56992;BME280;42885;49.754;18.636;2023-02-26T02:05:45;97224.09;;;4.89;97.30
56992;BME280;42885;49.754;18.636;2023-02-26T02:08:16;97238.95;;;4.78;96.17
56992;BME280;42885;49.754;18.636;2023-02-26T02:10:50;97245.20;;;4.74;96.96
56992;BME280;42885;49.754;18.636;2023-02-26T02:16:31;97254.93;;;5.02;97.00
56992;BME280;42885;49.754;18.636;2023-02-26T02:22:34;97262.21;;;4.95;95.18
56992;BME280;42885;49.754;18.636;2023-02-26T02:31:07;97263.03;;;4.80;96.38
56992;BME280;42885;49.754;18.636;2023-02-26T02:36:31;97259.63;;;4.71;96.82
56992;BME280;42885;49.754;18.636;2023-02-26T02:39:10;97247.80;;;4.74;96.19
56992;BME280;42885;49.754;18.636;2023-02-26T02:41:41;97241.06;;;4.62;96.18
56992;BME280;42885;49.754;18.636;2023-02-26T02:44:14;97233.54;;;4.74;95.78
56992;BME280;42885;49.754;18.636;2023-02-26T02:47:05;97235.63;;;4.67;95.97
56992;BME280;42885;49.754;18.636;2023-02-26T02:50:16;97242.31;;;4.71;95.74
56992;BME280;42885;49.754;18.636;2023-02-26T02:53:13;97233.78;;;4.69;95.94
56992;BME280;42885;49.754;18.636;2023-02-26T02:56:07;97254.58;;;4.76;95.39
56992;BME280;42885;49.754;18.636;2023-02-26T02:59:19;97268.14;;;4.98;95.13
56992;BME280;42885;49.754;18.636;2023-02-26T03:01:34;97271.81;;;4.68;95.92
56992;BME280;42885;49.754;18.636;2023-02-26T03:04:06;97282.72;;;4.75;98.34
56992;BME280;42885;49.754;18.636;2023-02-26T03:06:39;97287.05;;;5.00;98.25
56992;BME280;42885;49.754;18.636;2023-02-26T03:09:10;97297.56;;;4.38;100.00
56992;BME280;42885;49.754;18.636;2023-02-26T03:11:42;97304.18;;;4.44;100.00
56992;BME280;42885;49.754;18.636;2023-02-26T03:14:14;97313.25;;;4.61;100.00
56992;BME280;42885;49.754;18.636;2023-02-26T03:17:08;97319.44;;;4.32;100.00
56992;BME280;42885;49.754;18.636;2023-02-26T03:20:15;97318.69;;;4.30;100.00
56992;BME280;42885;49.754;18.636;2023-02-26T03:22:49;97321.37;;;4.20;100.00
56992;BME280;42885;49.754;18.636;2023-02-26T03:25:44;97326.91;;;4.38;100.00
56992;BME280;42885;49.754;18.636;2023-02-26T03:28:21;97329.64;;;4.44;100.00
56992;BME280;42885;49.754;18.636;2023-02-26T03:34:07;97332.78;;;4.42;100.00
56992;BME280;42885;49.754;18.636;2023-02-26T03:36:47;97334.05;;;4.51;100.00
56992;BME280;42885;49.754;18.636;2023-02-26T03:39:26;97338.33;;;4.34;100.00
56992;BME280;42885;49.754;18.636;2023-02-26T03:42:03;97347.34;;;4.45;100.00
56992;BME280;42885;49.754;18.636;2023-02-26T03:44:47;97342.88;;;4.64;100.00
56992;BME280;42885;49.754;18.636;2023-02-26T03:47:18;97332.98;;;4.55;100.00
56992;BME280;42885;49.754;18.636;2023-02-26T03:49:54;97335.00;;;4.75;100.00
56992;BME280;42885;49.754;18.636;2023-02-26T03:52:29;97341.55;;;4.82;100.00
56992;BME280;42885;49.754;18.636;2023-02-26T03:55:16;97344.11;;;4.66;100.00
56992;BME280;42885;49.754;18.636;2023-02-26T03:57:41;97349.08;;;4.53;100.00
56992;BME280;42885;49.754;18.636;2023-02-26T04:00:23;97354.71;;;4.61;100.00
56992;BME280;42885;49.754;18.636;2023-02-26T04:02:58;97358.88;;;4.64;100.00
56992;BME280;42885;49.754;18.636;2023-02-26T04:05:46;97365.77;;;4.65;100.00
56992;BME280;42885;49.754;18.636;2023-02-26T04:08:06;97379.16;;;4.55;100.00
56992;BME280;42885;49.754;18.636;2023-02-26T04:13:25;97383.97;;;4.63;100.00
56992;BME280;42885;49.754;18.636;2023-02-26T04:15:57;97385.03;;;4.59;100.00
56992;BME280;42885;49.754;18.636;2023-02-26T04:18:27;97396.55;;;4.36;100.00
56992;BME280;42885;49.754;18.636;2023-02-26T04:20:58;97391.67;;;4.21;100.00
56992;BME280;42885;49.754;18.636;2023-02-26T04:23:29;97397.68;;;4.39;100.00
56992;BME280;42885;49.754;18.636;2023-02-26T04:26:01;97398.92;;;4.49;99.76
56992;BME280;42885;49.754;18.636;2023-02-26T04:28:32;97398.92;;;4.49;98.94
56992;BME280;42885;49.754;18.636;2023-02-26T04:31:04;97401.87;;;4.24;99.72
56992;BME280;42885;49.754;18.636;2023-02-26T04:33:37;97399.80;;;4.13;100.00
56992;BME280;42885;49.754;18.636;2023-02-26T04:36:08;97410.49;;;4.24;98.92
56992;BME280;42885;49.754;18.636;2023-02-26T04:38:39;97405.30;;;4.07;99.23
56992;BME280;42885;49.754;18.636;2023-02-26T04:41:10;97402.80;;;3.86;100.00
56992;BME280;42885;49.754;18.636;2023-02-26T04:43:41;97409.86;;;3.74;100.00
56992;BME280;42885;49.754;18.636;2023-02-26T04:46:17;97412.23;;;3.87;100.00
56992;BME280;42885;49.754;18.636;2023-02-26T04:48:48;97414.42;;;4.05;99.31
56992;BME280;42885;49.754;18.636;2023-02-26T04:51:19;97418.01;;;3.83;100.00
56992;BME280;42885;49.754;18.636;2023-02-26T04:53:52;97421.43;;;4.03;98.68
56992;BME280;42885;49.754;18.636;2023-02-26T04:56:23;97427.49;;;4.02;98.97
56992;BME280;42885;49.754;18.636;2023-02-26T04:58:53;97433.14;;;4.02;99.86
56992;BME280;42885;49.754;18.636;2023-02-26T05:01:26;97430.88;;;4.04;100.00
56992;BME280;42885;49.754;18.636;2023-02-26T05:03:58;97438.82;;;3.91;99.87
56992;BME280;42885;49.754;18.636;2023-02-26T05:06:30;97431.16;;;3.98;99.23
56992;BME280;42885;49.754;18.636;2023-02-26T05:09:00;97435.73;;;4.02;98.67
56992;BME280;42885;49.754;18.636;2023-02-26T05:11:33;97433.55;;;3.83;100.00
56992;BME280;42885;49.754;18.636;2023-02-26T05:14:03;97448.16;;;3.84;99.98
56992;BME280;42885;49.754;18.636;2023-02-26T05:16:34;97458.23;;;3.91;100.00
56992;BME280;42885;49.754;18.636;2023-02-26T05:19:05;97463.68;;;4.04;99.30
56992;BME280;42885;49.754;18.636;2023-02-26T05:21:36;97475.65;;;4.06;99.00
56992;BME280;42885;49.754;18.636;2023-02-26T05:24:08;97482.19;;;4.05;98.52
56992;BME280;42885;49.754;18.636;2023-02-26T05:26:39;97483.09;;;4.04;96.70
56992;BME280;42885;49.754;18.636;2023-02-26T05:29:10;97483.31;;;3.99;97.26
56992;BME280;42885;49.754;18.636;2023-02-26T05:31:41;97495.77;;;4.19;95.44
56992;BME280;42885;49.754;18.636;2023-02-26T05:34:12;97504.50;;;4.26;94.38
56992;BME280;42885;49.754;18.636;2023-02-26T05:36:43;97514.16;;;4.23;95.13
56992;BME280;42885;49.754;18.636;2023-02-26T05:39:14;97514.97;;;4.15;94.94
56992;BME280;42885;49.754;18.636;2023-02-26T05:41:45;97518.81;;;4.06;95.45
56992;BME280;42885;49.754;18.636;2023-02-26T05:44:16;97523.70;;;3.84;97.88
56992;BME280;42885;49.754;18.636;2023-02-26T05:46:47;97528.28;;;3.77;98.96
56992;BME280;42885;49.754;18.636;2023-02-26T05:49:18;97534.26;;;3.79;98.91
56992;BME280;42885;49.754;18.636;2023-02-26T05:51:49;97541.55;;;3.90;97.32
56992;BME280;42885;49.754;18.636;2023-02-26T05:54:20;97542.58;;;3.86;96.94
56992;BME280;42885;49.754;18.636;2023-02-26T05:56:51;97547.20;;;3.79;97.47
56992;BME280;42885;49.754;18.636;2023-02-26T05:59:22;97568.52;;;3.84;97.33
56992;BME280;42885;49.754;18.636;2023-02-26T06:01:53;97561.94;;;3.88;96.91
56992;BME280;42885;49.754;18.636;2023-02-26T06:04:24;97560.38;;;3.83;96.43
56992;BME280;42885;49.754;18.636;2023-02-26T06:06:55;97559.64;;;3.71;97.76
56992;BME280;42885;49.754;18.636;2023-02-26T06:09:25;97558.17;;;3.84;96.86
56992;BME280;42885;49.754;18.636;2023-02-26T06:11:56;97561.69;;;4.03;95.41
56992;BME280;42885;49.754;18.636;2023-02-26T06:14:27;97561.69;;;4.03;95.41
56992;BME280;42885;49.754;18.636;2023-02-26T06:16:58;97566.91;;;3.92;92.72
56992;BME280;42885;49.754;18.636;2023-02-26T06:19:29;97571.45;;;4.06;91.94
56992;BME280;42885;49.754;18.636;2023-02-26T06:22:02;97573.80;;;4.21;91.57
56992;BME280;42885;49.754;18.636;2023-02-26T06:24:33;97579.45;;;4.21;92.39
56992;BME280;42885;49.754;18.636;2023-02-26T06:27:03;97579.61;;;4.07;92.41
56992;BME280;42885;49.754;18.636;2023-02-26T06:29:34;97581.55;;;4.02;91.87
56992;BME280;42885;49.754;18.636;2023-02-26T06:32:06;97580.91;;;4.07;91.58
56992;BME280;42885;49.754;18.636;2023-02-26T06:34:37;97579.28;;;4.05;91.52
56992;BME280;42885;49.754;18.636;2023-02-26T06:37:07;97587.05;;;4.05;91.71
56992;BME280;42885;49.754;18.636;2023-02-26T06:39:38;97588.94;;;4.01;92.37
56992;BME280;42885;49.754;18.636;2023-02-26T06:42:09;97587.27;;;4.00;93.03
56992;BME280;42885;49.754;18.636;2023-02-26T06:44:40;97588.97;;;3.91;93.39
56992;BME280;42885;49.754;18.636;2023-02-26T06:47:11;97598.88;;;3.81;94.15
56992;BME280;42885;49.754;18.636;2023-02-26T06:49:42;97601.17;;;3.78;95.37
56992;BME280;42885;49.754;18.636;2023-02-26T06:52:12;97611.73;;;3.74;95.55
56992;BME280;42885;49.754;18.636;2023-02-26T06:54:43;97609.51;;;3.64;95.96
56992;BME280;42885;49.754;18.636;2023-02-26T06:57:14;97608.41;;;3.60;97.45
56992;BME280;42885;49.754;18.636;2023-02-26T06:59:45;97613.98;;;3.71;96.53
56992;BME280;42885;49.754;18.636;2023-02-26T07:02:19;97607.95;;;3.91;95.90
56992;BME280;42885;49.754;18.636;2023-02-26T07:04:50;97622.95;;;4.23;94.24
56992;BME280;42885;49.754;18.636;2023-02-26T07:07:20;97621.50;;;4.26;92.37
56992;BME280;42885;49.754;18.636;2023-02-26T07:09:51;97626.42;;;4.51;91.16
56992;BME280;42885;49.754;18.636;2023-02-26T07:12:22;97626.88;;;4.79;88.14
56992;BME280;42885;49.754;18.636;2023-02-26T07:14:53;97631.91;;;4.82;86.47
56992;BME280;42885;49.754;18.636;2023-02-26T07:17:24;97638.08;;;4.79;84.52
56992;BME280;42885;49.754;18.636;2023-02-26T07:19:55;97641.00;;;4.63;85.42
56992;BME280;42885;49.754;18.636;2023-02-26T07:22:26;97644.06;;;4.43;87.36
56992;BME280;42885;49.754;18.636;2023-02-26T07:24:56;97649.62;;;4.44;87.41
56992;BME280;42885;49.754;18.636;2023-02-26T07:27:29;97648.88;;;4.70;87.61
56992;BME280;42885;49.754;18.636;2023-02-26T07:30:01;97655.73;;;4.62;86.37
56992;BME280;42885;49.754;18.636;2023-02-26T07:32:32;97651.61;;;4.86;85.11
56992;BME280;42885;49.754;18.636;2023-02-26T07:35:03;97651.61;;;4.86;85.11
56992;BME280;42885;49.754;18.636;2023-02-26T07:37:34;97656.80;;;4.86;84.96
56992;BME280;42885;49.754;18.636;2023-02-26T07:40:06;97661.09;;;4.77;86.14
56992;BME280;42885;49.754;18.636;2023-02-26T07:42:37;97668.31;;;4.89;85.77
56992;BME280;42885;49.754;18.636;2023-02-26T07:45:08;97667.59;;;5.05;83.41
56992;BME280;42885;49.754;18.636;2023-02-26T07:47:39;97669.17;;;4.99;83.25
56992;BME280;42885;49.754;18.636;2023-02-26T07:50:11;97672.08;;;5.01;83.18
56992;BME280;42885;49.754;18.636;2023-02-26T07:52:41;97681.75;;;4.98;84.92
56992;BME280;42885;49.754;18.636;2023-02-26T07:55:13;97685.31;;;4.86;85.04
56992;BME280;42885;49.754;18.636;2023-02-26T07:57:44;97695.54;;;4.89;84.33
56992;BME280;42885;49.754;18.636;2023-02-26T08:00:17;97697.28;;;4.89;84.94
56992;BME280;42885;49.754;18.636;2023-02-26T08:02:48;97695.59;;;4.79;84.36
56992;BME280;42885;49.754;18.636;2023-02-26T08:05:19;97706.45;;;4.87;84.20
56992;BME280;42885;49.754;18.636;2023-02-26T08:07:50;97703.04;;;4.95;83.53
56992;BME280;42885;49.754;18.636;2023-02-26T08:10:21;97710.12;;;5.01;83.17
56992;BME280;42885;49.754;18.636;2023-02-26T08:12:51;97707.51;;;5.11;82.57
56992;BME280;42885;49.754;18.636;2023-02-26T08:15:22;97713.11;;;5.30;82.24
56992;BME280;42885;49.754;18.636;2023-02-26T08:17:53;97725.09;;;5.41;78.92
56992;BME280;42885;49.754;18.636;2023-02-26T08:20:25;97725.09;;;5.41;78.92
56992;BME280;42885;49.754;18.636;2023-02-26T08:22:56;97721.27;;;5.31;79.52
56992;BME280;42885;49.754;18.636;2023-02-26T08:25:27;97729.12;;;5.20;79.96
56992;BME280;42885;49.754;18.636;2023-02-26T08:27:57;97734.53;;;5.16;78.70
56992;BME280;42885;49.754;18.636;2023-02-26T08:30:30;97742.09;;;5.29;78.30
56992;BME280;42885;49.754;18.636;2023-02-26T08:33:01;97740.45;;;5.37;76.32
56992;BME280;42885;49.754;18.636;2023-02-26T08:35:32;97736.23;;;5.43;75.69
56992;BME280;42885;49.754;18.636;2023-02-26T08:38:02;97739.11;;;5.83;75.49
56992;BME280;42885;49.754;18.636;2023-02-26T08:40:33;97739.87;;;5.85;70.86
56992;BME280;42885;49.754;18.636;2023-02-26T08:43:04;97753.85;;;5.91;71.86
56992;BME280;42885;49.754;18.636;2023-02-26T08:45:35;97750.32;;;5.57;72.67
56992;BME280;42885;49.754;18.636;2023-02-26T08:48:06;97766.36;;;5.65;73.89
56992;BME280;42885;49.754;18.636;2023-02-26T08:50:36;97763.19;;;5.77;73.64
56992;BME280;42885;49.754;18.636;2023-02-26T08:53:08;97760.81;;;5.73;72.93
56992;BME280;42885;49.754;18.636;2023-02-26T08:55:39;97762.64;;;5.79;71.76
56992;BME280;42885;49.754;18.636;2023-02-26T08:58:10;97762.88;;;5.75;70.75
56992;BME280;42885;49.754;18.636;2023-02-26T09:00:41;97753.58;;;5.51;70.59
56992;BME280;42885;49.754;18.636;2023-02-26T09:03:12;97751.21;;;5.38;70.92
56992;BME280;42885;49.754;18.636;2023-02-26T09:05:43;97757.45;;;5.06;71.73
56992;BME280;42885;49.754;18.636;2023-02-26T09:08:14;97760.80;;;5.08;72.87
56992;BME280;42885;49.754;18.636;2023-02-26T09:10:45;97758.84;;;5.41;71.91
56992;BME280;42885;49.754;18.636;2023-02-26T09:13:16;97769.81;;;5.29;71.28
56992;BME280;42885;49.754;18.636;2023-02-26T09:15:48;97768.63;;;4.98;69.91
56992;BME280;42885;49.754;18.636;2023-02-26T09:18:19;97782.77;;;4.71;71.16
56992;BME280;42885;49.754;18.636;2023-02-26T09:20:50;97784.03;;;5.11;70.38
56992;BME280;42885;49.754;18.636;2023-02-26T09:23:21;97788.58;;;5.06;72.53
56992;BME280;42885;49.754;18.636;2023-02-26T09:25:53;97783.22;;;5.19;71.37
56992;BME280;42885;49.754;18.636;2023-02-26T09:28:25;97797.08;;;5.18;71.82
56992;BME280;42885;49.754;18.636;2023-02-26T09:30:56;97797.50;;;5.09;74.18
56992;BME280;42885;49.754;18.636;2023-02-26T09:33:26;97809.69;;;4.98;77.51
56992;BME280;42885;49.754;18.636;2023-02-26T09:35:59;97804.20;;;5.04;80.25
56992;BME280;42885;49.754;18.636;2023-02-26T09:38:30;97806.52;;;5.10;79.34
56992;BME280;42885;49.754;18.636;2023-02-26T09:41:12;97807.81;;;5.10;77.70
56992;BME280;42885;49.754;18.636;2023-02-26T09:44:06;97807.49;;;5.08;75.54
56992;BME280;42885;49.754;18.636;2023-02-26T09:46:47;97810.47;;;5.28;73.20
56992;BME280;42885;49.754;18.636;2023-02-26T09:52:04;97826.02;;;6.12;68.95
56992;BME280;42885;49.754;18.636;2023-02-26T09:54:33;97826.23;;;6.52;65.95
56992;BME280;42885;49.754;18.636;2023-02-26T09:57:08;97825.10;;;6.82;64.64
56992;BME280;42885;49.754;18.636;2023-02-26T09:59:40;97822.28;;;6.09;66.87
56992;BME280;42885;49.754;18.636;2023-02-26T10:02:22;97822.28;;;6.09;66.87
56992;BME280;42885;49.754;18.636;2023-02-26T10:04:50;97830.52;;;6.09;68.91
56992;BME280;42885;49.754;18.636;2023-02-26T10:07:35;97826.36;;;5.87;69.10
56992;BME280;42885;49.754;18.636;2023-02-26T10:13:48;97839.23;;;5.43;71.04
56992;BME280;42885;49.754;18.636;2023-02-26T10:15:50;97844.03;;;5.22;72.82
56992;BME280;42885;49.754;18.636;2023-02-26T10:18:25;97855.66;;;5.14;74.53
56992;BME280;42885;49.754;18.636;2023-02-26T10:23:45;97864.14;;;4.98;78.43
56992;BME280;42885;49.754;18.636;2023-02-26T10:26:20;97876.23;;;5.08;78.29
56992;BME280;42885;49.754;18.636;2023-02-26T10:32:20;97880.53;;;5.28;75.67
56992;BME280;42885;49.754;18.636;2023-02-26T10:34:54;97879.83;;;5.63;74.73
56992;BME280;42885;49.754;18.636;2023-02-26T10:40:17;97869.66;;;6.23;71.80
56992;BME280;42885;49.754;18.636;2023-02-26T10:42:59;97866.06;;;6.34;70.16
56992;BME280;42885;49.754;18.636;2023-02-26T10:45:38;97870.52;;;6.41;67.06
56992;BME280;42885;49.754;18.636;2023-02-26T10:48:34;97876.45;;;7.37;65.59
56992;BME280;42885;49.754;18.636;2023-02-26T10:51:14;97874.11;;;7.24;63.79
56992;BME280;42885;49.754;18.636;2023-02-26T10:53:44;97867.64;;;7.56;61.87
56992;BME280;42885;49.754;18.636;2023-02-26T10:56:23;97857.30;;;7.54;59.29
56992;BME280;42885;49.754;18.636;2023-02-26T10:58:50;97865.83;;;7.65;56.66
56992;BME280;42885;49.754;18.636;2023-02-26T11:01:26;97858.93;;;7.32;57.55
56992;BME280;42885;49.754;18.636;2023-02-26T11:04:07;97858.93;;;7.32;57.55
56992;BME280;42885;49.754;18.636;2023-02-26T11:09:38;97873.09;;;7.67;56.54
56992;BME280;42885;49.754;18.636;2023-02-26T11:12:14;97877.17;;;7.64;55.61
56992;BME280;42885;49.754;18.636;2023-02-26T11:14:47;97882.47;;;7.22;56.31
56992;BME280;42885;49.754;18.636;2023-02-26T11:17:25;97889.31;;;6.55;57.09
56992;BME280;42885;49.754;18.636;2023-02-26T11:20:00;97901.08;;;6.36;56.39
56992;BME280;42885;49.754;18.636;2023-02-26T11:22:33;97901.16;;;6.43;54.67
56992;BME280;42885;49.754;18.636;2023-02-26T11:25:06;97913.27;;;7.05;56.94
56992;BME280;42885;49.754;18.636;2023-02-26T11:27:37;97909.02;;;6.24;52.28
56992;BME280;42885;49.754;18.636;2023-02-26T11:30:17;97912.38;;;6.17;51.64
56992;BME280;42885;49.754;18.636;2023-02-26T11:32:55;97926.27;;;6.08;52.05
56992;BME280;42885;49.754;18.636;2023-02-26T11:35:26;97936.08;;;6.01;54.24
56992;BME280;42885;49.754;18.636;2023-02-26T11:38:01;97939.66;;;6.26;54.84
56992;BME280;42885;49.754;18.636;2023-02-26T11:40:41;97946.73;;;6.33;55.90
56992;BME280;42885;49.754;18.636;2023-02-26T11:43:18;97940.42;;;6.11;56.48
56992;BME280;42885;49.754;18.636;2023-02-26T11:45:56;97942.86;;;5.95;57.39
56992;BME280;42885;49.754;18.636;2023-02-26T11:48:40;97942.33;;;6.16;57.56
56992;BME280;42885;49.754;18.636;2023-02-26T11:50:59;97949.45;;;6.30;57.92
56992;BME280;42885;49.754;18.636;2023-02-26T11:53:41;97946.75;;;7.37;58.28
56992;BME280;42885;49.754;18.636;2023-02-26T11:56:13;97941.39;;;6.80;56.34
56992;BME280;42885;49.754;18.636;2023-02-26T11:58:45;97948.43;;;7.29;55.91
56992;BME280;42885;49.754;18.636;2023-02-26T12:01:17;97949.15;;;7.24;53.13
56992;BME280;42885;49.754;18.636;2023-02-26T12:03:48;97937.70;;;7.36;52.28
56992;BME280;42885;49.754;18.636;2023-02-26T12:06:22;97950.05;;;6.81;53.00
56992;BME280;42885;49.754;18.636;2023-02-26T12:08:56;97952.02;;;6.67;54.35
56992;BME280;42885;49.754;18.636;2023-02-26T12:31:09;98002.05;;;4.98;68.70
56992;BME280;42885;49.754;18.636;2023-02-26T12:37:13;98012.66;;;4.26;78.71
56992;BME280;42885;49.754;18.636;2023-02-26T12:45:51;98041.80;;;4.21;89.41
56992;BME280;42885;49.754;18.636;2023-02-26T12:53:50;98032.77;;;4.31;87.94
56992;BME280;42885;49.754;18.636;2023-02-26T12:59:16;98039.78;;;4.62;82.76
56992;BME280;42885;49.754;18.636;2023-02-26T13:10:50;98051.31;;;4.87;77.96
56992;BME280;42885;49.754;18.636;2023-02-26T13:13:29;98066.20;;;4.82;77.83
56992;BME280;42885;49.754;18.636;2023-02-26T13:21:26;98067.55;;;5.23;75.44
56992;BME280;42885;49.754;18.636;2023-02-26T13:23:58;98077.67;;;5.30;74.52
56992;BME280;42885;49.754;18.636;2023-02-26T13:26:29;98075.69;;;5.87;73.59
56992;BME280;42885;49.754;18.636;2023-02-26T13:29:17;98079.94;;;5.58;73.99
56992;BME280;42885;49.754;18.636;2023-02-26T13:36:55;98083.11;;;5.23;74.66
56992;BME280;42885;49.754;18.636;2023-02-26T13:39:51;98084.94;;;5.32;75.98
56992;BME280;42885;49.754;18.636;2023-02-26T13:42:27;98088.41;;;5.00;76.44
56992;BME280;42885;49.754;18.636;2023-02-26T13:45:02;98093.23;;;4.54;78.83
56992;BME280;42885;49.754;18.636;2023-02-26T13:50:12;98094.84;;;5.01;78.71
56992;BME280;42885;49.754;18.636;2023-02-26T13:52:48;98098.24;;;4.91;76.65
56992;BME280;42885;49.754;18.636;2023-02-26T13:55:33;98099.06;;;5.14;75.92
56992;BME280;42885;49.754;18.636;2023-02-26T13:57:48;98090.41;;;5.86;75.19
56992;BME280;42885;49.754;18.636;2023-02-26T14:00:33;98097.13;;;5.40;74.49
56992;BME280;42885;49.754;18.636;2023-02-26T14:03:26;98097.32;;;5.46;74.42
56992;BME280;42885;49.754;18.636;2023-02-26T14:11:41;98101.14;;;5.16;73.29
56992;BME280;42885;49.754;18.636;2023-02-26T14:14:17;98103.92;;;5.22;73.61
56992;BME280;42885;49.754;18.636;2023-02-26T14:30:49;98134.54;;;4.23;92.45
56992;BME280;42885;49.754;18.636;2023-02-26T14:33:26;98127.20;;;4.22;94.94
56992;BME280;42885;49.754;18.636;2023-02-26T14:35:58;98124.91;;;4.38;94.69
56992;BME280;42885;49.754;18.636;2023-02-26T14:38:34;98131.42;;;4.49;97.46
56992;BME280;42885;49.754;18.636;2023-02-26T14:41:12;98143.60;;;4.47;97.16
56992;BME280;42885;49.754;18.636;2023-02-26T14:43:43;98154.02;;;4.45;99.14
56992;BME280;42885;49.754;18.636;2023-02-26T14:46:14;98151.20;;;4.16;100.00
56992;BME280;42885;49.754;18.636;2023-02-26T14:48:46;98153.80;;;4.27;100.00
56992;BME280;42885;49.754;18.636;2023-02-26T14:51:28;98159.44;;;4.15;100.00
56992;BME280;42885;49.754;18.636;2023-02-26T14:57:35;98167.36;;;4.34;100.00
56992;BME280;42885;49.754;18.636;2023-02-26T15:00:00;98174.19;;;4.49;100.00
56992;BME280;42885;49.754;18.636;2023-02-26T15:02:56;98174.23;;;4.35;100.00
56992;BME280;42885;49.754;18.636;2023-02-26T15:10:36;98187.25;;;4.22;100.00
56992;BME280;42885;49.754;18.636;2023-02-26T15:24:30;98192.77;;;3.62;96.86
56992;BME280;42885;49.754;18.636;2023-02-26T15:27:04;98188.81;;;3.77;94.09
56992;BME280;42885;49.754;18.636;2023-02-26T15:29:38;98187.86;;;3.79;89.68
56992;BME280;42885;49.754;18.636;2023-02-26T15:32:22;98183.35;;;3.84;87.09
56992;BME280;42885;49.754;18.636;2023-02-26T15:37:52;98208.11;;;3.80;86.15
56992;BME280;42885;49.754;18.636;2023-02-26T15:40:27;98210.37;;;3.89;86.93
56992;BME280;42885;49.754;18.636;2023-02-26T15:42:59;98217.67;;;3.91;86.41
56992;BME280;42885;49.754;18.636;2023-02-26T15:45:33;98229.36;;;3.90;85.36
56992;BME280;42885;49.754;18.636;2023-02-26T15:48:12;98228.14;;;4.00;86.49
56992;BME280;42885;49.754;18.636;2023-02-26T15:50:43;98228.81;;;3.80;85.84
56992;BME280;42885;49.754;18.636;2023-02-26T15:53:30;98235.98;;;3.98;87.22
56992;BME280;42885;49.754;18.636;2023-02-26T15:56:06;98230.72;;;4.13;86.26
56992;BME280;42885;49.754;18.636;2023-02-26T15:58:44;98238.73;;;4.06;87.36
56992;BME280;42885;49.754;18.636;2023-02-26T16:01:17;98242.38;;;3.75;88.14
56992;BME280;42885;49.754;18.636;2023-02-26T16:03:50;98243.29;;;3.85;89.35
56992;BME280;42885;49.754;18.636;2023-02-26T16:06:30;98244.59;;;3.85;87.90
56992;BME280;42885;49.754;18.636;2023-02-26T16:09:03;98250.58;;;3.88;87.91
56992;BME280;42885;49.754;18.636;2023-02-26T16:11:37;98251.09;;;3.72;88.42
56992;BME280;42885;49.754;18.636;2023-02-26T16:14:20;98251.48;;;3.73;89.22
56992;BME280;42885;49.754;18.636;2023-02-26T16:16:53;98256.96;;;3.64;88.56
56992;BME280;42885;49.754;18.636;2023-02-26T16:25:00;98280.00;;;3.85;86.96